Webcam more information Webcam


avvertimento per Temporali more information blitzortung!


avvertimento per Pioggia more information rain snow radar


altri nostri siti meteo:

RISCHIO INCENDIRischio incendi

Pomeziameteo 1Sito sul meteo

Pomeziameteo DashboardSito sul meteo

Caput FrigorisSito sul meteo

BarcellonameteoSito sul meteo

MeteoipassiSito sul meteo

TortoretometeolidoSito sul meteo

CastelnuovovomanometeoSito sul meteo

MeteogonzagaSito sul meteo

MeteonetworkInvio dai a Meteonetwork



Temporali Da: 24-10-2019 11:00 Fino a: 19:59 Avvertimento per: Temporali Livello: Arancio info button
Pioggia Da: 24-10-2019 11:00 Fino a: 19:59 Avvertimento per: Pioggia Livello: Arancio info button

Report METAR

   
LIRV - Viterbo (it-Mil), Italy
Distanza dalla stazione: W 4 km
Dati ricevuti: 23-10-2019 19:55
DATI Obsoleti
Sereno  
Sereno  
   Vento: Variabile calma
Vento: Variabile calma
Temperatura: 18°C
P.to Rugiada: 12°C
Umidita: 68%
Barometro: 1018 hPa
Visibilita: oltre 10 km
dettagli cloud: Sereno
LIRV 231755Z /////KT CAVOK 18/12 Q1018
LIQN - Rieti, Italy
Distanza dalla stazione: E 59 km
Dati ricevuti: 23-10-2019 19:50
DATI Obsoleti
Sereno  
Sereno  
   Vento: Variabile 5.6 km/h
Vento: Variabile 5.6 km/h
Temperatura: 15°C
P.to Rugiada: 13°C
Umidita: 88%
Barometro: 1018 hPa
Visibilita: oltre 10 km
dettagli cloud: Sereno
LIQN 231750Z VRB03KT CAVOK 15/13 Q1018
LIRU - Rome/Urbe (it-Af, Italy
Distanza dalla stazione: S 61 km
Dati ricevuti: 23-10-2019 19:50
DATI Obsoleti
Sereno  
Sereno  
   Vento: Variabile 5.6 km/h
Vento: Variabile 5.6 km/h
Temperatura: 19°C
P.to Rugiada: 14°C
Umidita: 73%
Barometro: 1017 hPa
Visibilita: oltre 10 km
dettagli cloud: Sereno
LIRU 231750Z VRB03KT CAVOK 19/14 Q1017
LIRG - Guidonia (it-Afb, Italy
Distanza dalla stazione: SE 68 km
Dati ricevuti: 23-10-2019 19:55
DATI Obsoleti
Sereno  
Sereno  
   Vento: NE 9.3 km/h
Vento: NE 9.3 km/h
Temperatura: 18°C
P.to Rugiada: 14°C
Umidita: 78%
Barometro: 1018 hPa
Visibilita: oltre 10 km
dettagli cloud: Sereno
LIRG 231755Z 03005KT CAVOK 18/14 Q1018
LIRK - Terminillo Mount, Italy
Distanza dalla stazione: E 70 km
Dati ricevuti: 24-10-2019 02:55
  
  
   Vento: S 20.4 km/h
Vento: S 20.4 km/h
Temperatura: 12°C
P.to Rugiada: -10°C
Umidita: 21%
Barometro: 1024 hPa
LIRK 240055Z AUTO 20011KT //// 12/M10 Q1024
 

Script sviluppato da  Saratoga-weather.org Adattato per il modello da  Weerstation Leuven

Strumentazione usata:

Stazione meteo
Davis VP2

Programma gestore dati meteo
WVIEW

Server per i dati meteo
WDS-5

Davis VP2

WVIEW

WDS-5